createdAt,value
2023-03-17T00:01:56.953Z,2.30
2023-03-17T00:04:27.383Z,2.31
2023-03-17T00:06:55.206Z,2.32
2023-03-17T00:09:23.164Z,2.34
2023-03-17T00:11:51.191Z,2.35
2023-03-17T00:14:19.997Z,2.35
2023-03-17T00:16:52.780Z,2.36
2023-03-17T00:19:31.457Z,2.38
2023-03-17T00:22:00.193Z,2.40
2023-03-17T00:24:29.165Z,2.41
2023-03-17T00:26:57.307Z,2.39
2023-03-17T00:29:25.622Z,2.42
2023-03-17T00:31:53.613Z,2.43
2023-03-17T00:34:21.656Z,2.44
2023-03-17T00:36:51.137Z,2.43
2023-03-17T00:39:19.663Z,2.45
2023-03-17T00:44:14.596Z,2.43
2023-03-17T00:46:42.616Z,2.41
2023-03-17T00:51:46.104Z,2.42
2023-03-17T00:54:14.514Z,2.43
2023-03-17T00:56:43.830Z,2.44
2023-03-17T00:59:22.554Z,2.43
2023-03-17T01:01:50.443Z,2.44
2023-03-17T01:04:19.794Z,2.44
2023-03-17T01:06:48.659Z,2.43
2023-03-17T01:09:18.681Z,2.42
2023-03-17T01:11:47.143Z,2.41
2023-03-17T01:14:15.503Z,2.40
2023-03-17T01:16:45.058Z,2.41
2023-03-17T01:19:13.419Z,2.41
2023-03-17T01:21:41.784Z,2.41
2023-03-17T01:24:09.733Z,2.41
2023-03-17T01:26:38.010Z,2.41
2023-03-17T01:29:07.943Z,2.40
2023-03-17T01:31:36.488Z,2.41
2023-03-17T01:34:06.156Z,2.40
2023-03-17T01:36:34.491Z,2.39
2023-03-17T01:39:03.538Z,2.40
2023-03-17T01:41:35.188Z,2.39
2023-03-17T01:44:04.254Z,2.40
2023-03-17T01:46:34.329Z,2.39
2023-03-17T01:49:31.012Z,2.38
2023-03-17T01:52:07.744Z,2.36
2023-03-17T01:54:48.381Z,2.33
2023-03-17T01:57:20.109Z,2.31
2023-03-17T01:59:52.396Z,2.31
2023-03-17T02:02:28.787Z,2.31
2023-03-17T02:04:57.497Z,2.29
2023-03-17T02:07:26.646Z,2.28
2023-03-17T02:09:55.972Z,2.26
2023-03-17T02:12:25.255Z,2.26
2023-03-17T02:14:53.258Z,2.25
2023-03-17T02:17:23.113Z,2.22
2023-03-17T02:19:53.511Z,2.24
2023-03-17T02:22:22.053Z,2.23
2023-03-17T02:24:58.497Z,2.21
2023-03-17T02:27:32.050Z,2.18
2023-03-17T02:29:59.923Z,2.15
2023-03-17T02:32:37.285Z,2.13
2023-03-17T02:35:07.398Z,2.11
2023-03-17T02:37:36.409Z,2.13
2023-03-17T02:40:05.768Z,2.11
2023-03-17T02:42:34.385Z,2.08
2023-03-17T02:45:02.397Z,2.07
2023-03-17T02:47:30.489Z,2.04
2023-03-17T02:49:58.772Z,2.02
2023-03-17T02:52:27.284Z,1.99
2023-03-17T02:54:55.441Z,1.96
2023-03-17T02:57:23.478Z,1.95
2023-03-17T02:59:51.464Z,1.92
2023-03-17T03:02:19.217Z,1.90
2023-03-17T03:04:47.940Z,1.87
2023-03-17T03:07:16.389Z,1.86
2023-03-17T03:09:44.239Z,1.83
2023-03-17T03:12:12.354Z,1.79
2023-03-17T03:14:40.875Z,1.77
2023-03-17T03:17:09.723Z,1.75
2023-03-17T03:19:37.754Z,1.74
2023-03-17T03:22:05.682Z,1.72
2023-03-17T03:24:33.814Z,1.70
2023-03-17T03:27:01.699Z,1.68
2023-03-17T03:29:29.458Z,1.67
2023-03-17T03:31:57.244Z,1.66
2023-03-17T03:34:25.064Z,1.65
2023-03-17T03:36:52.867Z,1.63
2023-03-17T03:39:20.661Z,1.63
2023-03-17T03:41:48.621Z,1.62
2023-03-17T03:44:16.392Z,1.61
2023-03-17T03:46:44.167Z,1.60
2023-03-17T03:49:12.466Z,1.61
2023-03-17T03:51:40.668Z,1.61
2023-03-17T03:54:08.494Z,1.61
2023-03-17T03:56:36.341Z,1.60
2023-03-17T03:59:04.298Z,1.59
2023-03-17T04:01:32.087Z,1.58
2023-03-17T04:04:00.045Z,1.58
2023-03-17T04:06:28.105Z,1.58
2023-03-17T04:08:58.159Z,1.57
2023-03-17T04:11:26.498Z,1.56
2023-03-17T04:13:54.510Z,1.52
2023-03-17T04:16:22.291Z,1.53
2023-03-17T04:18:50.252Z,1.52
2023-03-17T04:21:19.118Z,1.50
2023-03-17T04:23:47.303Z,1.50
2023-03-17T04:26:15.252Z,1.50
2023-03-17T04:28:43.630Z,1.50
2023-03-17T04:31:12.421Z,1.48
2023-03-17T04:33:41.269Z,1.47
2023-03-17T04:36:15.420Z,1.46
2023-03-17T04:38:43.196Z,1.46
2023-03-17T04:41:11.477Z,1.45
2023-03-17T04:43:39.575Z,1.45
2023-03-17T04:46:08.199Z,1.45
2023-03-17T04:48:36.584Z,1.44
2023-03-17T04:51:04.598Z,1.45
2023-03-17T04:53:32.877Z,1.44
2023-03-17T04:56:00.628Z,1.45
2023-03-17T04:58:31.142Z,1.43
2023-03-17T05:00:59.384Z,1.41
2023-03-17T05:03:28.735Z,1.42
2023-03-17T05:05:57.981Z,1.42
2023-03-17T05:08:28.591Z,1.38
2023-03-17T05:10:57.378Z,1.39
2023-03-17T05:13:25.930Z,1.38
2023-03-17T05:15:59.455Z,1.38
2023-03-17T05:18:27.180Z,1.37
2023-03-17T05:20:55.274Z,1.39
2023-03-17T05:23:23.138Z,1.40
2023-03-17T05:25:51.143Z,1.40
2023-03-17T05:28:20.860Z,1.39
2023-03-17T05:30:49.537Z,1.39
2023-03-17T05:33:17.793Z,1.39
2023-03-17T05:35:46.641Z,1.36
2023-03-17T05:38:16.046Z,1.38
2023-03-17T05:40:45.703Z,1.38
2023-03-17T05:43:13.967Z,1.39
2023-03-17T05:45:42.497Z,1.39
2023-03-17T05:48:12.337Z,1.39
2023-03-17T05:53:46.146Z,1.41
2023-03-17T05:56:14.754Z,1.43
2023-03-17T05:58:42.959Z,1.43
2023-03-17T06:01:10.805Z,1.45
2023-03-17T06:03:38.792Z,1.41
2023-03-17T06:06:06.961Z,1.49
2023-03-17T06:08:34.737Z,1.49
2023-03-17T06:11:02.619Z,1.51
2023-03-17T06:13:30.406Z,1.54
2023-03-17T06:15:58.363Z,1.55
2023-03-17T06:18:26.286Z,1.57
2023-03-17T06:20:54.199Z,1.59
2023-03-17T06:23:23.729Z,1.60
2023-03-17T06:25:51.650Z,1.63
2023-03-17T06:28:19.888Z,1.66
2023-03-17T06:30:48.039Z,1.69
2023-03-17T06:33:18.282Z,1.71
2023-03-17T06:35:46.282Z,1.74
2023-03-17T06:38:14.045Z,1.77
2023-03-17T06:40:41.971Z,1.78
2023-03-17T06:43:09.996Z,1.81
2023-03-17T06:45:37.975Z,1.86
2023-03-17T06:48:07.179Z,1.89
2023-03-17T06:50:35.010Z,1.93
2023-03-17T06:53:03.387Z,1.97
2023-03-17T06:55:32.063Z,2.01
2023-03-17T06:58:00.655Z,2.07
2023-03-17T07:00:28.655Z,2.13
2023-03-17T07:02:56.853Z,2.18
2023-03-17T07:05:24.759Z,2.23
2023-03-17T07:07:52.614Z,2.26
2023-03-17T07:10:20.574Z,2.34
2023-03-17T07:12:48.988Z,2.41
2023-03-17T07:15:17.468Z,2.44
2023-03-17T07:17:47.072Z,2.50
2023-03-17T07:20:15.265Z,2.55
2023-03-17T07:22:43.237Z,2.59
2023-03-17T07:25:11.090Z,2.62
2023-03-17T07:27:38.888Z,2.69
2023-03-17T07:30:07.826Z,2.74
2023-03-17T07:32:36.198Z,2.78
2023-03-17T07:35:05.221Z,2.82
2023-03-17T07:37:33.078Z,2.89
2023-03-17T07:40:01.158Z,2.95
2023-03-17T07:42:30.213Z,3.01
2023-03-17T07:44:58.121Z,3.06
2023-03-17T07:47:26.275Z,3.12
2023-03-17T07:49:55.030Z,3.16
2023-03-17T07:52:23.078Z,3.21
2023-03-17T07:54:52.182Z,3.26
2023-03-17T07:57:20.274Z,3.32
2023-03-17T07:59:48.280Z,3.37
2023-03-17T08:02:17.686Z,3.43
2023-03-17T08:04:46.177Z,3.49
2023-03-17T08:07:14.755Z,3.54
2023-03-17T08:09:42.851Z,3.58
2023-03-17T08:12:11.081Z,3.64
2023-03-17T08:14:39.053Z,3.69
2023-03-17T08:17:06.915Z,3.73
2023-03-17T08:19:35.029Z,3.80
2023-03-17T08:22:02.811Z,3.84
2023-03-17T08:24:30.876Z,3.89
2023-03-17T08:27:00.856Z,3.94
2023-03-17T08:29:29.318Z,4.01
2023-03-17T08:31:57.533Z,4.08
2023-03-17T08:34:26.323Z,4.13
2023-03-17T08:36:54.197Z,4.20
2023-03-17T08:39:22.121Z,4.30
2023-03-17T08:41:51.109Z,4.37
2023-03-17T08:44:19.796Z,4.43
2023-03-17T08:46:49.539Z,4.53
2023-03-17T08:49:17.601Z,4.63
2023-03-17T08:51:45.585Z,4.72
2023-03-17T08:54:14.024Z,4.79
2023-03-17T08:56:42.333Z,4.84
2023-03-17T08:59:10.534Z,4.92
2023-03-17T09:01:57.070Z,5.00
2023-03-17T09:04:26.219Z,5.09
2023-03-17T09:07:03.296Z,5.15
2023-03-17T09:09:35.357Z,5.23
2023-03-17T09:12:05.770Z,5.31
2023-03-17T09:14:42.854Z,5.39
2023-03-17T09:17:14.110Z,5.46
2023-03-17T09:19:41.867Z,5.57
2023-03-17T09:22:14.137Z,5.67
2023-03-17T09:24:42.068Z,5.75
2023-03-17T09:27:09.987Z,5.82
2023-03-17T09:29:38.238Z,5.92
2023-03-17T09:32:06.336Z,6.00
2023-03-17T09:34:35.778Z,6.09
2023-03-17T09:37:03.723Z,6.17
2023-03-17T09:39:32.083Z,6.27
2023-03-17T09:42:15.149Z,6.36
2023-03-17T09:44:56.306Z,6.45
2023-03-17T09:47:42.949Z,6.55
2023-03-17T09:50:16.828Z,6.69
2023-03-17T09:52:46.406Z,6.81
2023-03-17T09:55:23.138Z,6.91
2023-03-17T09:57:52.432Z,7.02
2023-03-17T10:00:26.828Z,7.10
2023-03-17T10:02:56.708Z,7.18
2023-03-17T10:05:27.606Z,7.28
2023-03-17T10:08:29.024Z,7.36
2023-03-17T10:11:00.586Z,7.43
2023-03-17T10:14:10.608Z,7.46
2023-03-17T10:16:54.746Z,7.48
2023-03-17T10:19:44.097Z,7.51
2023-03-17T10:22:21.840Z,7.55
2023-03-17T10:24:53.547Z,7.60
2023-03-17T10:27:21.806Z,7.69
2023-03-17T10:29:49.781Z,7.75
2023-03-17T10:32:17.742Z,7.81
2023-03-17T10:34:47.268Z,7.92
2023-03-17T10:37:21.213Z,8.01
2023-03-17T10:39:54.723Z,8.10
2023-03-17T10:42:30.013Z,8.22
2023-03-17T10:44:58.820Z,8.32
2023-03-17T10:47:50.297Z,8.41
2023-03-17T10:50:22.896Z,8.52
2023-03-17T10:52:55.017Z,8.60
2023-03-17T10:55:24.163Z,8.64
2023-03-17T10:58:03.433Z,8.68
2023-03-17T11:00:35.417Z,8.77
2023-03-17T11:03:25.540Z,8.84
2023-03-17T11:06:10.393Z,8.90
2023-03-17T11:08:46.806Z,8.98
2023-03-17T11:11:31.979Z,9.02
2023-03-17T11:14:13.301Z,9.02
2023-03-17T11:17:02.374Z,9.03
2023-03-17T11:19:53.422Z,9.04
2023-03-17T11:22:25.961Z,9.07
2023-03-17T11:25:11.571Z,9.10
2023-03-17T11:27:48.488Z,9.15
2023-03-17T11:30:22.369Z,9.16
2023-03-17T11:32:53.234Z,9.19
2023-03-17T11:35:24.055Z,9.20
2023-03-17T11:38:18.708Z,9.24
2023-03-17T11:41:21.919Z,9.28
2023-03-17T11:44:12.596Z,9.31
2023-03-17T11:46:59.930Z,9.33
2023-03-17T11:49:34.527Z,9.37
2023-03-17T11:52:11.486Z,9.41
2023-03-17T11:55:04.930Z,9.43
2023-03-17T11:57:47.626Z,9.47
2023-03-17T12:00:18.591Z,9.52
2023-03-17T12:03:04.844Z,9.54
2023-03-17T12:05:33.830Z,9.57
2023-03-17T12:08:07.946Z,9.60
2023-03-17T12:10:49.697Z,9.64
2023-03-17T12:13:45.547Z,9.66
2023-03-17T12:17:00.852Z,9.67
2023-03-17T12:20:12.709Z,9.69
2023-03-17T12:23:09.692Z,9.75
2023-03-17T12:26:07.610Z,9.79
2023-03-17T12:28:40.996Z,9.88
2023-03-17T12:31:28.268Z,9.94
2023-03-17T12:34:02.224Z,9.97
2023-03-17T12:36:38.382Z,9.98
2023-03-17T12:39:13.519Z,9.99
2023-03-17T12:41:53.802Z,10.02
2023-03-17T12:44:41.476Z,10.01
2023-03-17T12:47:43.643Z,10.04
2023-03-17T12:50:21.492Z,10.08
2023-03-17T12:53:19.364Z,10.10
2023-03-17T12:55:50.533Z,10.13
2023-03-17T12:58:29.862Z,10.15
2023-03-17T13:01:32.864Z,10.16
2023-03-17T13:04:18.454Z,10.17
2023-03-17T13:06:58.498Z,10.17
2023-03-17T13:09:32.498Z,10.19
2023-03-17T13:12:02.374Z,10.20
2023-03-17T13:14:45.915Z,10.21
2023-03-17T13:17:17.122Z,10.21
2023-03-17T13:20:08.035Z,10.22
2023-03-17T13:22:36.065Z,10.21
2023-03-17T13:25:35.440Z,10.22
2023-03-17T13:28:12.504Z,10.24
2023-03-17T13:30:40.271Z,10.25
2023-03-17T13:33:11.276Z,10.26
2023-03-17T13:35:43.588Z,10.28
2023-03-17T13:38:37.564Z,10.29
2023-03-17T13:41:14.335Z,10.28
2023-03-17T13:44:26.646Z,10.28
2023-03-17T13:46:54.917Z,10.26
2023-03-17T13:49:28.119Z,10.28
2023-03-17T13:52:00.344Z,10.28
2023-03-17T13:54:28.916Z,10.27
2023-03-17T13:56:59.461Z,10.25
2023-03-17T13:59:36.050Z,10.23
2023-03-17T14:02:17.593Z,10.25
2023-03-17T14:04:52.775Z,10.25
2023-03-17T14:07:25.980Z,10.28
2023-03-17T14:09:59.812Z,10.25
2023-03-17T14:12:36.692Z,10.30
2023-03-17T14:15:16.014Z,10.31
2023-03-17T14:17:51.627Z,10.33
2023-03-17T14:20:22.513Z,10.33
2023-03-17T14:23:01.617Z,10.31
2023-03-17T14:25:35.504Z,10.34
2023-03-17T14:28:11.152Z,10.37
2023-03-17T14:30:39.453Z,10.39
2023-03-17T14:33:29.786Z,10.43
2023-03-17T14:36:02.516Z,10.53
2023-03-17T14:38:32.154Z,10.61
2023-03-17T14:41:18.502Z,10.65
2023-03-17T14:43:46.575Z,10.66
2023-03-17T14:46:16.702Z,10.67
2023-03-17T14:48:48.799Z,10.63
2023-03-17T14:51:37.240Z,10.61
2023-03-17T14:54:16.553Z,10.59
2023-03-17T14:56:48.633Z,10.57
2023-03-17T14:59:17.740Z,10.53
2023-03-17T15:01:48.706Z,10.49
2023-03-17T15:04:19.161Z,10.48
2023-03-17T15:06:49.871Z,10.44
2023-03-17T15:09:20.375Z,10.41
2023-03-17T15:11:48.890Z,10.40
2023-03-17T15:14:21.460Z,10.37
2023-03-17T15:16:51.764Z,10.36
2023-03-17T15:19:21.801Z,10.35
2023-03-17T15:21:50.086Z,10.32
2023-03-17T15:24:33.285Z,10.29
2023-03-17T15:27:07.187Z,10.26
2023-03-17T15:29:34.983Z,10.23
2023-03-17T15:32:11.073Z,10.21
2023-03-17T15:34:40.393Z,10.20
2023-03-17T15:37:27.768Z,10.19
2023-03-17T15:39:56.765Z,10.15
2023-03-17T15:42:32.844Z,10.11
2023-03-17T15:45:01.570Z,10.08
2023-03-17T15:47:32.342Z,10.08
2023-03-17T15:50:07.657Z,10.06
2023-03-17T15:52:35.588Z,10.05
2023-03-17T15:55:15.404Z,10.04
2023-03-17T15:57:50.778Z,10.02
2023-03-17T16:00:23.680Z,9.99
2023-03-17T16:02:56.269Z,10.00
2023-03-17T16:05:36.640Z,9.98
2023-03-17T16:08:04.696Z,9.96
2023-03-17T16:10:33.351Z,9.93
2023-03-17T16:13:01.494Z,9.92
2023-03-17T16:15:32.201Z,9.91
2023-03-17T16:18:08.344Z,9.90
2023-03-17T16:20:36.181Z,9.87
2023-03-17T16:23:16.204Z,9.85
2023-03-17T16:25:44.529Z,9.83
2023-03-17T16:28:26.023Z,9.79
2023-03-17T16:30:55.239Z,9.76
2023-03-17T16:33:24.523Z,9.73
2023-03-17T16:35:53.581Z,9.69
2023-03-17T16:38:24.489Z,9.67
2023-03-17T16:40:54.447Z,9.64
2023-03-17T16:43:26.001Z,9.63
2023-03-17T16:45:57.395Z,9.61
2023-03-17T16:48:26.065Z,9.59
2023-03-17T16:50:54.185Z,9.55
2023-03-17T16:53:22.730Z,9.56
2023-03-17T16:55:54.537Z,9.53
2023-03-17T16:58:34.116Z,9.51
2023-03-17T17:01:03.808Z,9.46
2023-03-17T17:03:31.968Z,9.46
2023-03-17T17:05:59.872Z,9.42
2023-03-17T17:08:27.735Z,9.40
2023-03-17T17:10:55.683Z,9.37
2023-03-17T17:13:23.602Z,9.35
2023-03-17T17:15:51.758Z,9.34
2023-03-17T17:18:22.165Z,9.31
2023-03-17T17:20:51.287Z,9.29
2023-03-17T17:23:25.526Z,9.26
2023-03-17T17:25:54.368Z,9.23
2023-03-17T17:28:23.814Z,9.18
2023-03-17T17:30:52.390Z,9.16
2023-03-17T17:33:21.474Z,9.12
2023-03-17T17:35:50.695Z,9.08
2023-03-17T17:38:20.553Z,9.04
2023-03-17T17:40:49.305Z,9.01
2023-03-17T17:43:18.336Z,8.98
2023-03-17T17:45:48.788Z,8.95
2023-03-17T17:48:18.507Z,8.92
2023-03-17T17:50:46.523Z,8.90
2023-03-17T17:53:14.880Z,8.85
2023-03-17T17:55:44.281Z,8.82
2023-03-17T17:58:16.826Z,8.78
2023-03-17T18:00:45.156Z,8.77
2023-03-17T18:03:13.278Z,8.74
2023-03-17T18:05:41.440Z,8.69
2023-03-17T18:08:14.482Z,8.67
2023-03-17T18:10:42.518Z,8.63
2023-03-17T18:13:10.468Z,8.58
2023-03-17T18:15:39.371Z,8.56
2023-03-17T18:18:07.426Z,8.52
2023-03-17T18:20:35.387Z,8.49
2023-03-17T18:23:03.893Z,8.46
2023-03-17T18:25:31.792Z,8.43
2023-03-17T18:28:01.479Z,8.41
2023-03-17T18:30:31.944Z,8.38
2023-03-17T18:33:10.187Z,8.35
2023-03-17T18:35:38.204Z,8.32
2023-03-17T18:38:06.082Z,8.29
2023-03-17T18:40:35.386Z,8.25
2023-03-17T18:43:03.478Z,8.24
2023-03-17T18:45:31.385Z,8.20
2023-03-17T18:47:59.264Z,8.18
2023-03-17T18:50:27.383Z,8.14
2023-03-17T18:52:56.311Z,8.12
2023-03-17T18:55:24.633Z,8.10
2023-03-17T18:57:54.553Z,8.06
2023-03-17T19:00:25.337Z,8.04
2023-03-17T19:02:53.668Z,8.02
2023-03-17T19:05:21.910Z,7.99
2023-03-17T19:07:50.089Z,7.97
2023-03-17T19:10:18.616Z,7.95
2023-03-17T19:12:50.745Z,7.92
2023-03-17T19:15:19.692Z,7.90
2023-03-17T19:17:47.863Z,7.88
2023-03-17T19:20:15.876Z,7.85
2023-03-17T19:22:44.406Z,7.82
2023-03-17T19:25:13.117Z,7.80
2023-03-17T19:27:41.036Z,7.77
2023-03-17T19:30:09.499Z,7.74
2023-03-17T19:32:37.764Z,7.71
2023-03-17T19:35:08.713Z,7.68
2023-03-17T19:37:38.236Z,7.63
2023-03-17T19:40:09.832Z,7.62
2023-03-17T19:42:37.874Z,7.60
2023-03-17T19:45:06.440Z,7.57
2023-03-17T19:47:37.119Z,7.52
2023-03-17T19:50:07.330Z,7.51
2023-03-17T19:52:35.093Z,7.49
2023-03-17T19:55:04.591Z,7.46
2023-03-17T19:57:34.484Z,7.42
2023-03-17T20:00:02.737Z,7.40
2023-03-17T20:02:30.948Z,7.37
2023-03-17T20:04:58.934Z,7.35
2023-03-17T20:07:29.224Z,7.31
2023-03-17T20:09:57.109Z,7.27
2023-03-17T20:12:26.209Z,7.25
2023-03-17T20:14:54.688Z,7.23
2023-03-17T20:17:22.594Z,7.20
2023-03-17T20:19:50.848Z,7.16
2023-03-17T20:22:22.184Z,7.13
2023-03-17T20:24:50.165Z,7.09
2023-03-17T20:27:18.422Z,7.08
2023-03-17T20:29:48.741Z,7.05
2023-03-17T20:32:18.296Z,7.03
2023-03-17T20:34:47.161Z,7.00
2023-03-17T20:37:19.917Z,6.97
2023-03-17T20:40:04.777Z,6.95
2023-03-17T20:42:32.859Z,6.93
2023-03-17T20:45:00.711Z,6.90
2023-03-17T20:47:28.630Z,6.88
2023-03-17T20:49:58.905Z,6.85
2023-03-17T20:52:30.332Z,6.82
2023-03-17T20:54:59.515Z,6.80
2023-03-17T20:57:28.875Z,6.76
2023-03-17T21:00:04.603Z,6.72
2023-03-17T21:02:34.837Z,6.71
2023-03-17T21:05:03.541Z,6.69
2023-03-17T21:07:31.930Z,6.67
2023-03-17T21:10:02.215Z,6.65
2023-03-17T21:12:31.002Z,6.63
2023-03-17T21:15:01.394Z,6.61
2023-03-17T21:17:30.823Z,6.60
2023-03-17T21:19:58.842Z,6.58
2023-03-17T21:22:26.871Z,6.56
2023-03-17T21:24:55.462Z,6.53
2023-03-17T21:27:23.864Z,6.51
2023-03-17T21:29:53.329Z,6.49
2023-03-17T21:32:23.785Z,6.46
2023-03-17T21:34:51.647Z,6.45
2023-03-17T21:37:19.526Z,6.43
2023-03-17T21:39:50.127Z,6.42
2023-03-17T21:42:19.621Z,6.40
2023-03-17T21:44:48.457Z,6.38
2023-03-17T21:47:19.947Z,6.38
2023-03-17T21:49:47.847Z,6.36
2023-03-17T21:52:16.004Z,6.35
2023-03-17T21:54:44.078Z,6.34
2023-03-17T21:57:12.265Z,6.34
2023-03-17T21:59:40.837Z,6.34
2023-03-17T22:02:12.514Z,6.34
2023-03-17T22:04:41.710Z,6.33
2023-03-17T22:07:13.405Z,6.33
2023-03-17T22:09:41.982Z,6.32
2023-03-17T22:12:12.822Z,6.33
2023-03-17T22:14:40.826Z,6.33
2023-03-17T22:17:09.219Z,6.32
2023-03-17T22:19:37.414Z,6.33
2023-03-17T22:22:05.788Z,6.33
2023-03-17T22:24:33.950Z,6.32
2023-03-17T22:27:01.808Z,6.31
2023-03-17T22:29:30.629Z,6.31
2023-03-17T22:31:59.404Z,6.31
2023-03-17T22:34:27.813Z,6.32
2023-03-17T22:36:55.780Z,6.31
2023-03-17T22:39:23.764Z,6.32
2023-03-17T22:41:51.974Z,6.32
2023-03-17T22:44:20.090Z,6.32
2023-03-17T22:46:48.059Z,6.32
2023-03-17T22:49:16.463Z,6.32
2023-03-17T22:51:44.486Z,6.33
2023-03-17T22:54:12.863Z,6.32
2023-03-17T22:56:40.971Z,6.32
2023-03-17T22:59:08.971Z,6.32
2023-03-17T23:01:36.782Z,6.32
2023-03-17T23:04:04.894Z,6.30
2023-03-17T23:06:32.691Z,6.30
2023-03-17T23:09:00.710Z,6.30
2023-03-17T23:11:28.551Z,6.30
2023-03-17T23:13:56.856Z,6.28
2023-03-17T23:16:24.999Z,6.28
2023-03-17T23:18:53.051Z,6.26
2023-03-17T23:21:28.590Z,6.26
2023-03-17T23:23:57.125Z,6.24
2023-03-17T23:26:25.458Z,6.21
2023-03-17T23:28:53.853Z,6.19
2023-03-17T23:31:22.672Z,6.17
2023-03-17T23:33:51.328Z,6.16
2023-03-17T23:36:19.464Z,6.14
2023-03-17T23:38:49.020Z,6.12
2023-03-17T23:41:17.596Z,6.10
2023-03-17T23:43:46.895Z,6.08
2023-03-17T23:46:15.008Z,6.07
2023-03-17T23:48:43.486Z,6.04
2023-03-17T23:51:12.660Z,6.05
2023-03-17T23:53:41.871Z,6.03
2023-03-17T23:56:11.577Z,6.02
2023-03-17T23:58:42.481Z,6.02
